createdAt,value
2023-01-30T00:04:42.003Z,1.70
2023-01-30T00:09:45.660Z,1.67
2023-01-30T00:14:48.635Z,1.73
2023-01-30T00:19:51.595Z,1.77
2023-01-30T00:24:54.629Z,1.79
2023-01-30T00:30:02.723Z,1.76
2023-01-30T00:35:07.318Z,1.74
2023-01-30T00:40:11.160Z,1.76
2023-01-30T00:45:39.988Z,1.76
2023-01-30T00:50:42.968Z,1.78
2023-01-30T00:55:46.170Z,1.75
2023-01-30T01:00:50.754Z,1.70
2023-01-30T01:05:53.807Z,1.72
2023-01-30T01:10:57.235Z,1.72
2023-01-30T01:16:00.246Z,1.67
2023-01-30T01:21:03.389Z,1.59
2023-01-30T01:26:06.415Z,1.57
2023-01-30T01:31:14.690Z,1.59
2023-01-30T01:36:42.404Z,1.62
2023-01-30T01:41:40.765Z,1.59
2023-01-30T01:47:03.428Z,1.60
2023-01-30T01:52:15.937Z,1.65
2023-01-30T01:57:27.024Z,1.72
2023-01-30T02:02:30.249Z,1.75
2023-01-30T02:07:43.579Z,1.70
2023-01-30T02:12:47.360Z,1.69
2023-01-30T02:17:50.458Z,1.72
2023-01-30T02:23:25.409Z,1.78
2023-01-30T02:29:19.361Z,1.83
2023-01-30T02:35:10.284Z,1.79
2023-01-30T02:40:58.802Z,1.74
2023-01-30T02:46:32.557Z,1.75
2023-01-30T02:51:38.050Z,1.74
2023-01-30T02:56:53.612Z,1.73
2023-01-30T03:02:25.806Z,1.69
2023-01-30T03:08:01.679Z,1.72
2023-01-30T03:13:22.727Z,1.75
2023-01-30T03:18:25.889Z,1.72
2023-01-30T03:23:28.865Z,1.69
2023-01-30T03:28:32.822Z,1.65
2023-01-30T03:33:35.612Z,1.63
2023-01-30T03:38:38.970Z,1.68
2023-01-30T03:43:41.940Z,1.72
2023-01-30T03:48:44.901Z,1.71
2023-01-30T03:53:47.876Z,1.67
2023-01-30T03:58:50.830Z,1.61
2023-01-30T04:03:53.950Z,1.64
2023-01-30T04:08:56.996Z,1.67
2023-01-30T04:13:59.974Z,1.67
2023-01-30T04:19:02.999Z,1.63
2023-01-30T04:24:06.499Z,1.58
2023-01-30T04:29:09.628Z,1.54
2023-01-30T04:34:12.709Z,1.57
2023-01-30T04:39:15.857Z,1.58
2023-01-30T04:44:18.811Z,1.56
2023-01-30T04:49:21.803Z,1.51
2023-01-30T04:54:24.767Z,1.45
2023-01-30T04:59:27.841Z,1.43
2023-01-30T05:04:30.941Z,1.48
2023-01-30T05:09:33.886Z,1.51
2023-01-30T05:14:36.898Z,1.49
2023-01-30T05:19:40.295Z,1.44
2023-01-30T05:24:43.370Z,1.44
2023-01-30T05:29:46.322Z,1.46
2023-01-30T05:34:50.009Z,1.46
2023-01-30T05:39:52.961Z,1.45
2023-01-30T05:44:55.921Z,1.36
2023-01-30T05:49:58.862Z,1.29
2023-01-30T05:55:01.798Z,1.26
2023-01-30T06:00:06.706Z,1.24
2023-01-30T06:05:09.830Z,1.19
2023-01-30T06:10:12.825Z,1.07
2023-01-30T06:15:16.429Z,0.99
2023-01-30T06:20:19.672Z,0.93
2023-01-30T06:25:22.675Z,0.93
2023-01-30T06:30:25.760Z,0.91
2023-01-30T06:35:28.753Z,0.87
2023-01-30T06:40:31.907Z,0.79
2023-01-30T06:45:34.868Z,0.68
2023-01-30T06:50:37.890Z,0.67
2023-01-30T06:55:40.870Z,0.69
2023-01-30T07:00:43.904Z,0.68
2023-01-30T07:05:48.004Z,0.64
2023-01-30T07:10:51.325Z,0.61
2023-01-30T07:15:54.273Z,0.58
2023-01-30T07:20:57.248Z,0.58
2023-01-30T07:26:04.175Z,0.62
2023-01-30T07:31:07.171Z,0.66
2023-01-30T07:36:10.146Z,0.67
2023-01-30T07:41:13.106Z,0.65
2023-01-30T07:46:16.564Z,0.62
2023-01-30T07:51:19.546Z,0.59
2023-01-30T07:56:22.685Z,0.61
2023-01-30T08:01:25.812Z,0.68
2023-01-30T08:06:28.759Z,0.71
2023-01-30T08:11:31.761Z,0.72
2023-01-30T08:16:35.070Z,0.73
2023-01-30T08:21:38.033Z,0.72
2023-01-30T08:26:41.077Z,0.72
2023-01-30T08:31:44.575Z,0.79
2023-01-30T08:36:49.251Z,0.83
2023-01-30T08:41:52.424Z,0.86
2023-01-30T08:46:55.366Z,0.86
2023-01-30T08:51:58.359Z,0.89
2023-01-30T08:57:01.441Z,0.91
2023-01-30T09:02:04.391Z,1.00
2023-01-30T09:07:07.376Z,1.07
2023-01-30T09:12:10.378Z,1.09
2023-01-30T09:17:13.877Z,1.13
2023-01-30T09:22:17.526Z,1.15
2023-01-30T09:27:20.467Z,1.17
2023-01-30T09:32:23.781Z,1.19
2023-01-30T09:37:26.831Z,1.23
2023-01-30T09:42:46.191Z,1.31
2023-01-30T09:47:55.372Z,1.39
2023-01-30T09:53:11.665Z,1.41
2023-01-30T09:58:24.740Z,1.38
2023-01-30T10:03:40.209Z,1.42
2023-01-30T10:08:54.328Z,1.51
2023-01-30T10:14:24.669Z,1.58
2023-01-30T10:19:52.661Z,1.62
2023-01-30T10:25:12.760Z,1.61
2023-01-30T10:30:17.768Z,1.66
2023-01-30T10:35:27.460Z,1.73
2023-01-30T10:41:07.092Z,1.76
2023-01-30T10:46:10.068Z,1.76
2023-01-30T10:51:39.899Z,1.81
2023-01-30T10:56:49.923Z,1.84
2023-01-30T11:02:16.996Z,1.82
2023-01-30T11:07:20.040Z,1.78
2023-01-30T11:12:23.320Z,1.83
2023-01-30T11:17:30.408Z,1.99
2023-01-30T11:22:35.407Z,2.11
2023-01-30T11:27:38.379Z,2.15
2023-01-30T11:32:44.343Z,2.12
2023-01-30T11:37:47.536Z,2.11
2023-01-30T11:43:12.343Z,2.08
2023-01-30T11:48:33.271Z,1.98
2023-01-30T11:54:09.955Z,1.93
2023-01-30T11:59:30.682Z,1.95
2023-01-30T12:04:34.000Z,1.91
2023-01-30T12:09:40.732Z,1.90
2023-01-30T12:14:49.411Z,1.95
2023-01-30T12:20:13.226Z,2.02
2023-01-30T12:25:56.300Z,2.07
2023-01-30T12:31:12.423Z,2.08
2023-01-30T12:36:42.963Z,2.07
2023-01-30T12:42:00.044Z,2.11
2023-01-30T12:47:56.094Z,2.14
2023-01-30T12:53:13.818Z,2.12
2023-01-30T12:58:57.273Z,2.04
2023-01-30T13:04:22.178Z,2.06
2023-01-30T13:10:01.140Z,2.10
2023-01-30T13:15:30.971Z,2.10
2023-01-30T13:21:12.930Z,2.16
2023-01-30T13:26:24.524Z,2.22
2023-01-30T13:31:35.938Z,2.18
2023-01-30T13:36:48.056Z,2.18
2023-01-30T13:41:56.839Z,2.17
2023-01-30T13:47:33.668Z,2.12
2023-01-30T13:52:53.247Z,2.06
2023-01-30T13:57:58.284Z,2.10
2023-01-30T14:03:04.239Z,2.13
2023-01-30T14:08:17.326Z,2.10
2023-01-30T14:13:20.334Z,2.07
2023-01-30T14:18:28.701Z,2.07
2023-01-30T14:23:36.397Z,2.04
2023-01-30T14:28:46.821Z,2.02
2023-01-30T14:33:51.596Z,2.00
2023-01-30T14:39:36.062Z,2.03
2023-01-30T14:44:59.000Z,2.00
2023-01-30T14:50:02.819Z,1.96
2023-01-30T14:55:17.254Z,1.97
2023-01-30T15:00:26.312Z,1.95
2023-01-30T15:05:37.629Z,1.90
2023-01-30T15:11:07.784Z,1.89
2023-01-30T15:16:55.050Z,1.88
2023-01-30T15:22:20.897Z,1.92
2023-01-30T15:27:50.484Z,1.90
2023-01-30T15:33:30.986Z,1.91
2023-01-30T15:38:34.947Z,1.95
2023-01-30T15:44:21.693Z,1.92
2023-01-30T15:50:03.609Z,1.90
2023-01-30T15:55:13.680Z,1.94
2023-01-30T16:00:29.514Z,1.93
2023-01-30T16:05:32.632Z,1.90
2023-01-30T16:10:45.273Z,1.91
2023-01-30T16:16:00.247Z,1.96
2023-01-30T16:21:19.379Z,1.99
2023-01-30T16:26:22.987Z,2.00
2023-01-30T16:31:27.597Z,2.05
2023-01-30T16:36:39.182Z,2.08
2023-01-30T16:41:43.390Z,2.07
2023-01-30T16:46:48.124Z,2.02
2023-01-30T16:52:00.951Z,2.04
2023-01-30T16:57:04.636Z,2.10
2023-01-30T17:02:08.123Z,2.10
2023-01-30T17:07:35.145Z,2.10
2023-01-30T17:12:43.123Z,2.14
2023-01-30T17:17:46.804Z,2.18
2023-01-30T17:22:53.071Z,2.19
2023-01-30T17:27:56.496Z,2.22
2023-01-30T17:32:59.447Z,2.29
2023-01-30T17:38:06.275Z,2.36
2023-01-30T17:43:11.705Z,2.38
2023-01-30T17:48:14.696Z,2.40
2023-01-30T17:53:17.689Z,2.46
2023-01-30T17:58:20.871Z,2.54
2023-01-30T18:03:25.369Z,2.60
2023-01-30T18:08:28.357Z,2.63
2023-01-30T18:13:31.358Z,2.64
2023-01-30T18:18:34.386Z,2.70
2023-01-30T18:23:38.277Z,2.77
2023-01-30T18:28:41.232Z,2.82
2023-01-30T18:33:45.621Z,2.80
2023-01-30T18:38:48.733Z,2.80
2023-01-30T18:43:58.016Z,2.86
2023-01-30T18:49:01.131Z,2.92
2023-01-30T18:54:04.167Z,2.95
2023-01-30T18:59:07.593Z,2.92
2023-01-30T19:04:11.875Z,2.88
2023-01-30T19:09:18.184Z,2.90
2023-01-30T19:14:21.141Z,2.93
2023-01-30T19:19:24.073Z,2.92
2023-01-30T19:24:27.059Z,2.86
2023-01-30T19:29:30.007Z,2.83
2023-01-30T19:34:33.362Z,2.84
2023-01-30T19:39:36.346Z,2.80
2023-01-30T19:44:41.036Z,2.76
2023-01-30T19:49:44.034Z,2.77
2023-01-30T19:54:47.601Z,2.77
2023-01-30T19:59:50.506Z,2.79
2023-01-30T20:04:53.500Z,2.79
2023-01-30T20:09:56.510Z,2.79
2023-01-30T20:14:59.578Z,2.85
2023-01-30T20:20:03.561Z,2.91
2023-01-30T20:25:07.158Z,2.93
2023-01-30T20:30:11.087Z,2.89
2023-01-30T20:35:14.124Z,2.88
2023-01-30T20:40:19.079Z,2.88
2023-01-30T20:45:22.249Z,2.89
2023-01-30T20:50:27.488Z,2.88
2023-01-30T20:55:30.575Z,2.86
2023-01-30T21:00:33.571Z,2.90
2023-01-30T21:05:37.207Z,2.88
2023-01-30T21:10:46.559Z,2.85
2023-01-30T21:15:59.391Z,2.82
2023-01-30T21:21:02.849Z,2.79
2023-01-30T21:26:10.207Z,2.81
2023-01-30T21:31:20.390Z,2.77
2023-01-30T21:36:23.578Z,2.72
2023-01-30T21:41:50.448Z,2.72
2023-01-30T21:46:53.693Z,2.69
2023-01-30T21:51:57.161Z,2.66
2023-01-30T21:57:00.166Z,2.65
2023-01-30T22:02:03.152Z,2.65
2023-01-30T22:07:07.025Z,2.64
2023-01-30T22:12:11.021Z,2.61
2023-01-30T22:17:13.870Z,2.58
2023-01-30T22:22:16.840Z,2.60
2023-01-30T22:27:19.816Z,2.62
2023-01-30T22:32:22.803Z,2.64
2023-01-30T22:37:25.731Z,2.59
2023-01-30T22:42:28.680Z,2.60
2023-01-30T22:47:31.644Z,2.61
2023-01-30T22:52:34.589Z,2.61
2023-01-30T22:57:37.996Z,2.58
2023-01-30T23:02:41.055Z,2.53
2023-01-30T23:07:44.128Z,2.53
2023-01-30T23:13:05.965Z,2.57
2023-01-30T23:18:29.600Z,2.60
2023-01-30T23:23:32.537Z,2.59
2023-01-30T23:28:36.609Z,2.60
2023-01-30T23:33:40.638Z,2.64
2023-01-30T23:38:43.599Z,2.64
2023-01-30T23:43:47.849Z,2.59
2023-01-30T23:48:57.317Z,2.63
2023-01-30T23:54:00.551Z,2.67
2023-01-30T23:59:05.177Z,2.63
